Time;durP1;ratioP1;P1;durP2;ratioP2;P2;SDS_P1;SDS_P2;PMS_P1;PMS_P2;Temp;Humidity;BMP_temperature;BMP_pressure;BME280_temperature;BME280_humidity;BME280_pressure;Samples;Min_cycle;Max_cycle;Signal;HPM_P1;HPM_P2
2022/01/25 00:26:30;;;;;;;12.60;8.68;;;;;;;;;;5031341;28;20035;-68
2022/01/25 00:31:29;;;;;;;14.52;8.82;;;;;;;;;;5031473;28;20144;-68
2022/01/25 00:33:55;;;;;;;16.83;9.30;;;;;;;;;;5031406;28;20021;-68
2022/01/25 00:36:22;;;;;;;14.35;9.23;;;;;;;;;;5031454;28;20018;-67
2022/01/25 00:38:48;;;;;;;14.68;8.57;;;;;;;;;;5031371;28;20025;-68
2022/01/25 00:41:15;;;;;;;16.17;9.30;;;;;;;;;;5031215;28;20017;-68
2022/01/25 00:43:41;;;;;;;14.98;8.98;;;;;;;;;;5031325;28;20025;-67
2022/01/25 00:46:10;;;;;;;14.88;9.43;;;;;;;;;;5031168;28;20100;-67
2022/01/25 00:54:00;;;;;;;12.70;8.52;;;;;;;;;;5031392;28;20501;-67
2022/01/25 00:56:29;;;;;;;13.15;8.75;;;;;;;;;;5029787;28;20024;-68
2022/01/25 00:58:56;;;;;;;14.75;8.00;;;;;;;;;;5031077;28;20025;-70
2022/01/25 01:01:22;;;;;;;14.90;8.77;;;;;;;;;;5030321;28;20072;-67
2022/01/25 01:03:48;;;;;;;15.15;8.63;;;;;;;;;;5031353;28;20094;-68
2022/01/25 01:06:15;;;;;;;16.48;8.30;;;;;;;;;;5040145;28;20083;-65
2022/01/25 01:08:41;;;;;;;13.77;8.52;;;;;;;;;;5051475;28;20480;-64
2022/01/25 01:11:12;;;;;;;18.63;7.50;;;;;;;;;;5051686;28;20029;-66
2022/01/25 01:13:56;;;;;;;14.50;8.82;;;;;;;;;;5051176;28;20032;-66
2022/01/25 01:30:30;;;;;;;14.45;8.90;;;;;;;;;;5054849;28;20079;-65
2022/01/25 01:43:36;;;;;;;20.20;8.70;;;;;;;;;;5053985;28;20033;-65
2022/01/25 01:48:40;;;;;;;12.85;7.40;;;;;;;;;;5054343;28;20066;-65
2022/01/25 01:51:18;;;;;;;15.50;8.70;;;;;;;;;;5054251;28;20048;-65
2022/01/25 01:53:44;;;;;;;14.18;8.20;;;;;;;;;;5054105;28;20029;-66
2022/01/25 01:56:10;;;;;;;17.00;8.73;;;;;;;;;;5052836;28;20028;-66
2022/01/25 01:58:37;;;;;;;19.13;8.50;;;;;;;;;;5054143;28;20025;-65
2022/01/25 02:01:06;;;;;;;14.60;9.25;;;;;;;;;;5053958;28;20480;-65
2022/01/25 02:03:32;;;;;;;14.00;8.60;;;;;;;;;;5053890;28;20063;-65
2022/01/25 02:05:58;;;;;;;15.05;7.25;;;;;;;;;;5054001;28;20029;-67
2022/01/25 02:08:25;;;;;;;15.45;8.20;;;;;;;;;;5045266;28;20048;-66
2022/01/25 02:10:51;;;;;;;30.80;8.90;;;;;;;;;;5033341;28;20018;-67
2022/01/25 02:13:17;;;;;;;17.58;8.88;;;;;;;;;;5032705;28;20026;-63
2022/01/25 02:15:48;;;;;;;17.20;8.60;;;;;;;;;;5033832;28;20024;-66
2022/01/25 02:23:42;;;;;;;18.67;7.82;;;;;;;;;;5034563;28;20054;-65
2022/01/25 02:26:08;;;;;;;18.55;8.77;;;;;;;;;;5033616;28;20033;-66
2022/01/25 02:28:36;;;;;;;18.50;8.88;;;;;;;;;;5033269;28;20033;-68
2022/01/25 02:31:04;;;;;;;17.55;7.60;;;;;;;;;;5033641;28;20038;-66
2022/01/25 02:33:30;;;;;;;14.55;8.05;;;;;;;;;;5033375;28;20432;-65
2022/01/25 02:35:57;;;;;;;14.45;8.40;;;;;;;;;;5033595;28;20025;-65
2022/01/25 02:38:25;;;;;;;17.30;8.30;;;;;;;;;;5033556;28;20099;-67
2022/01/25 02:40:51;;;;;;;18.52;8.15;;;;;;;;;;5033568;28;20021;-65
2022/01/25 02:43:18;;;;;;;13.27;8.10;;;;;;;;;;5033306;28;20026;-66
2022/01/25 02:45:49;;;;;;;16.23;8.55;;;;;;;;;;5033195;28;20033;-66
2022/01/25 02:48:30;;;;;;;13.05;7.70;;;;;;;;;;5033399;28;20033;-66
2022/01/25 02:51:02;;;;;;;11.82;7.35;;;;;;;;;;5033626;28;20061;-66
2022/01/25 02:53:29;;;;;;;11.85;7.15;;;;;;;;;;5033466;28;20484;-66
2022/01/25 02:55:56;;;;;;;12.63;7.63;;;;;;;;;;5065348;28;20044;-66
2022/01/25 02:58:22;;;;;;;12.93;7.28;;;;;;;;;;5033097;28;20013;-66
2022/01/25 03:00:48;;;;;;;16.70;7.38;;;;;;;;;;5033347;28;20048;-66
2022/01/25 03:03:15;;;;;;;11.27;6.78;;;;;;;;;;5033259;28;20017;-65
2022/01/25 03:05:42;;;;;;;12.57;7.70;;;;;;;;;;5033475;28;20024;-66
2022/01/25 03:08:11;;;;;;;14.00;7.60;;;;;;;;;;5065028;28;20029;-65
2022/01/25 03:10:39;;;;;;;12.90;7.05;;;;;;;;;;5033079;28;20017;-65
2022/01/25 03:13:09;;;;;;;13.77;7.72;;;;;;;;;;5033054;28;20029;-66
2022/01/25 03:21:04;;;;;;;10.48;6.40;;;;;;;;;;5036665;28;20050;-65
2022/01/25 03:23:31;;;;;;;11.93;7.30;;;;;;;;;;5032881;28;20029;-64
2022/01/25 03:25:58;;;;;;;14.23;6.75;;;;;;;;;;5032895;28;20025;-65
2022/01/25 03:28:24;;;;;;;10.15;6.32;;;;;;;;;;5032738;28;20083;-66
2022/01/25 03:30:51;;;;;;;11.80;7.15;;;;;;;;;;5032786;28;20031;-66
2022/01/25 03:33:17;;;;;;;10.95;7.07;;;;;;;;;;5032306;28;20053;-65
2022/01/25 03:35:43;;;;;;;11.85;7.30;;;;;;;;;;5031934;28;20365;-66
2022/01/25 03:38:10;;;;;;;11.25;7.10;;;;;;;;;;5032657;28;20032;-67
2022/01/25 03:40:36;;;;;;;12.82;6.70;;;;;;;;;;5035916;28;20022;-67
2022/01/25 03:43:06;;;;;;;10.35;6.95;;;;;;;;;;5032487;28;20026;-65
2022/01/25 03:45:35;;;;;;;11.65;6.57;;;;;;;;;;5031326;28;20044;-66
2022/01/25 03:50:40;;;;;;;10.88;7.47;;;;;;;;;;5031764;28;20025;-65
2022/01/25 03:53:06;;;;;;;11.18;6.78;;;;;;;;;;5032072;28;20050;-65
2022/01/25 03:55:33;;;;;;;12.18;7.35;;;;;;;;;;5032699;28;20385;-66
2022/01/25 03:57:59;;;;;;;11.25;6.75;;;;;;;;;;5051751;28;20025;-67
2022/01/25 04:00:25;;;;;;;13.25;7.05;;;;;;;;;;5052002;28;20067;-66
2022/01/25 04:02:57;;;;;;;14.50;7.40;;;;;;;;;;5051682;28;20055;-67
2022/01/25 04:05:35;;;;;;;10.90;6.15;;;;;;;;;;5051957;28;20067;-65
2022/01/25 04:08:01;;;;;;;9.63;5.60;;;;;;;;;;5051641;28;20025;-65
2022/01/25 04:10:27;;;;;;;10.23;6.43;;;;;;;;;;5050408;28;20021;-65
2022/01/25 04:12:53;;;;;;;18.27;7.60;;;;;;;;;;5051849;28;20109;-66
2022/01/25 04:15:19;;;;;;;11.80;7.47;;;;;;;;;;5050715;28;20024;-66
2022/01/25 04:17:51;;;;;;;13.55;7.38;;;;;;;;;;5051755;28;20025;-64
2022/01/25 04:20:27;;;;;;;14.95;6.43;;;;;;;;;;5051638;28;20124;-65
2022/01/25 04:25:38;;;;;;;13.02;6.95;;;;;;;;;;5051795;28;20117;-67
2022/01/25 04:28:04;;;;;;;15.65;8.02;;;;;;;;;;5051482;28;20488;-66
2022/01/25 04:30:31;;;;;;;14.02;7.25;;;;;;;;;;5051523;28;20076;-67
2022/01/25 04:33:01;;;;;;;13.40;7.20;;;;;;;;;;5051822;28;20055;-66
2022/01/25 04:35:43;;;;;;;12.55;6.82;;;;;;;;;;5051654;28;20017;-66
2022/01/25 04:49:19;;;;;;;13.18;8.10;;;;;;;;;;5051276;28;20087;-66
2022/01/25 04:54:29;;;;;;;13.50;8.07;;;;;;;;;;5051128;28;20035;-66
2022/01/25 05:01:54;;;;;;;14.85;8.38;;;;;;;;;;5052105;28;20032;-64
2022/01/25 05:04:29;;;;;;;14.88;8.43;;;;;;;;;;5055035;28;20040;-66
2022/01/25 05:07:03;;;;;;;15.48;8.85;;;;;;;;;;5055070;28;20025;-66
2022/01/25 05:09:32;;;;;;;13.90;9.02;;;;;;;;;;5053379;28;20032;-65
2022/01/25 05:11:59;;;;;;;13.88;8.60;;;;;;;;;;5054717;28;20028;-65
2022/01/25 05:14:32;;;;;;;17.35;8.75;;;;;;;;;;5054809;28;20036;-66
2022/01/25 05:17:01;;;;;;;14.85;9.20;;;;;;;;;;5054594;28;20064;-65
2022/01/25 05:22:20;;;;;;;16.10;9.50;;;;;;;;;;5054975;28;20499;-66
2022/01/25 05:24:48;;;;;;;14.15;7.47;;;;;;;;;;5054936;28;20021;-66
2022/01/25 05:27:15;;;;;;;20.13;9.43;;;;;;;;;;5054662;28;20039;-65
2022/01/25 05:29:41;;;;;;;15.85;9.20;;;;;;;;;;5054789;28;20024;-66
2022/01/25 05:32:07;;;;;;;15.38;8.90;;;;;;;;;;5054923;28;20029;-66
2022/01/25 05:34:33;;;;;;;16.15;8.70;;;;;;;;;;5055114;28;20045;-66
2022/01/25 05:37:00;;;;;;;17.00;9.88;;;;;;;;;;5054974;28;20044;-65
2022/01/25 05:39:31;;;;;;;14.13;8.93;;;;;;;;;;5054669;28;20025;-62
2022/01/25 05:42:02;;;;;;;17.17;8.95;;;;;;;;;;5054370;28;20095;-64
2022/01/25 05:47:28;;;;;;;15.15;9.75;;;;;;;;;;5053646;28;20044;-63
2022/01/25 05:49:54;;;;;;;17.40;9.00;;;;;;;;;;5054217;28;20013;-64
2022/01/25 05:52:20;;;;;;;16.75;9.18;;;;;;;;;;5053974;28;20488;-64
2022/01/25 05:54:46;;;;;;;17.05;9.27;;;;;;;;;;5053896;28;20435;-64
2022/01/25 05:57:12;;;;;;;18.10;9.25;;;;;;;;;;5047448;28;20021;-64
2022/01/25 05:59:38;;;;;;;16.73;8.98;;;;;;;;;;5053875;28;20040;-64
2022/01/25 06:02:06;;;;;;;16.50;9.48;;;;;;;;;;5047236;28;20500;-65
2022/01/25 06:04:32;;;;;;;15.93;9.52;;;;;;;;;;5052353;28;20117;-67
2022/01/25 06:06:58;;;;;;;17.15;9.82;;;;;;;;;;5053698;28;20047;-65
2022/01/25 06:09:24;;;;;;;15.48;8.93;;;;;;;;;;5053442;28;20052;-65
2022/01/25 06:11:53;;;;;;;16.67;9.55;;;;;;;;;;5053604;28;20025;-66
2022/01/25 06:14:20;;;;;;;15.15;9.45;;;;;;;;;;5053736;28;20039;-66
2022/01/25 06:16:46;;;;;;;16.02;9.40;;;;;;;;;;5054224;28;20017;-65
2022/01/25 06:19:12;;;;;;;15.82;10.00;;;;;;;;;;5054095;28;20025;-66
2022/01/25 06:21:38;;;;;;;15.88;9.75;;;;;;;;;;5053783;28;20050;-66
2022/01/25 06:24:04;;;;;;;16.75;9.35;;;;;;;;;;5053958;28;20032;-65
2022/01/25 06:26:30;;;;;;;17.67;10.32;;;;;;;;;;5053750;28;20013;-66
2022/01/25 06:28:56;;;;;;;18.58;10.50;;;;;;;;;;5053756;28;20040;-65
2022/01/25 06:31:23;;;;;;;16.35;9.82;;;;;;;;;;5053459;28;20063;-64
2022/01/25 06:33:49;;;;;;;23.60;9.65;;;;;;;;;;5052114;28;20033;-62
2022/01/25 06:36:15;;;;;;;14.90;9.73;;;;;;;;;;5053622;28;20045;-66
2022/01/25 06:38:42;;;;;;;17.38;9.70;;;;;;;;;;5053024;28;20103;-66
2022/01/25 06:41:12;;;;;;;14.35;9.20;;;;;;;;;;5053079;28;20021;-65
2022/01/25 06:43:39;;;;;;;17.60;9.60;;;;;;;;;;5053341;28;20024;-64
2022/01/25 06:46:05;;;;;;;15.93;9.70;;;;;;;;;;5053388;28;20052;-65
2022/01/25 06:48:32;;;;;;;16.08;9.38;;;;;;;;;;5052686;28;20033;-65
2022/01/25 06:50:58;;;;;;;16.38;9.35;;;;;;;;;;5052755;28;20028;-64
2022/01/25 06:53:24;;;;;;;16.48;10.07;;;;;;;;;;5052643;28;20149;-66
2022/01/25 06:55:50;;;;;;;16.25;9.13;;;;;;;;;;5052513;28;20082;-66
2022/01/25 06:58:16;;;;;;;17.02;10.23;;;;;;;;;;5037875;28;20029;-66
2022/01/25 07:00:43;;;;;;;17.73;9.50;;;;;;;;;;5050242;28;20040;-66
2022/01/25 07:03:09;;;;;;;17.98;9.63;;;;;;;;;;5047618;28;20056;-67
2022/01/25 07:05:35;;;;;;;14.95;9.88;;;;;;;;;;5030928;28;20017;-65
2022/01/25 07:08:01;;;;;;;17.70;9.75;;;;;;;;;;5032405;28;20041;-66
2022/01/25 07:10:27;;;;;;;15.88;10.18;;;;;;;;;;5032550;28;20048;-65
2022/01/25 07:12:53;;;;;;;21.63;10.43;;;;;;;;;;5032308;28;20123;-66
2022/01/25 07:15:19;;;;;;;16.40;10.43;;;;;;;;;;5035495;28;20021;-64
2022/01/25 07:17:45;;;;;;;17.65;10.52;;;;;;;;;;5052219;28;20421;-64
2022/01/25 07:20:12;;;;;;;15.60;9.98;;;;;;;;;;5052388;28;20063;-67
2022/01/25 07:22:38;;;;;;;14.70;9.18;;;;;;;;;;5052230;28;20249;-64
2022/01/25 07:25:06;;;;;;;19.80;10.25;;;;;;;;;;5051299;28;20361;-66
2022/01/25 07:27:32;;;;;;;16.90;9.98;;;;;;;;;;5045910;28;20040;-65
2022/01/25 07:29:58;;;;;;;18.08;9.88;;;;;;;;;;5031672;28;20495;-66
2022/01/25 07:32:24;;;;;;;21.02;9.82;;;;;;;;;;5044815;28;20135;-67
2022/01/25 07:34:50;;;;;;;20.40;10.35;;;;;;;;;;5050759;28;20075;-66
2022/01/25 07:37:16;;;;;;;20.13;10.43;;;;;;;;;;5052221;28;20037;-66
2022/01/25 07:39:44;;;;;;;16.95;9.77;;;;;;;;;;5052331;28;20499;-66
2022/01/25 07:42:11;;;;;;;28.88;11.35;;;;;;;;;;5052037;28;20021;-65
2022/01/25 07:44:39;;;;;;;18.30;10.38;;;;;;;;;;5051946;28;20480;-65
2022/01/25 07:47:05;;;;;;;20.42;10.38;;;;;;;;;;5051948;28;20020;-65
2022/01/25 07:49:32;;;;;;;22.98;10.25;;;;;;;;;;5052125;28;20081;-66
2022/01/25 07:51:58;;;;;;;24.42;10.85;;;;;;;;;;5052000;28;20060;-68
2022/01/25 07:54:25;;;;;;;21.17;9.30;;;;;;;;;;5051970;28;20104;-66
2022/01/25 07:56:52;;;;;;;22.40;10.63;;;;;;;;;;5052146;28;20048;-65
2022/01/25 07:59:18;;;;;;;18.67;9.68;;;;;;;;;;5051949;28;20032;-65
2022/01/25 08:01:44;;;;;;;20.77;10.00;;;;;;;;;;5051611;28;20048;-63
2022/01/25 08:04:10;;;;;;;19.92;10.65;;;;;;;;;;5051589;28;20055;-66
2022/01/25 08:06:38;;;;;;;23.95;11.32;;;;;;;;;;5051503;28;20059;-64
2022/01/25 08:09:05;;;;;;;21.70;10.50;;;;;;;;;;5051762;28;20037;-65
2022/01/25 08:11:31;;;;;;;27.23;10.52;;;;;;;;;;5050684;28;20021;-64
2022/01/25 08:14:11;;;;;;;18.83;10.27;;;;;;;;;;5051445;28;20021;-64
2022/01/25 08:16:38;;;;;;;23.83;11.43;;;;;;;;;;5050747;28;20021;-65
2022/01/25 08:19:04;;;;;;;20.70;11.23;;;;;;;;;;5051793;28;20486;-64
2022/01/25 08:21:30;;;;;;;22.42;11.05;;;;;;;;;;5050381;28;20059;-64
2022/01/25 08:23:56;;;;;;;24.05;10.80;;;;;;;;;;5051914;28;20021;-65
2022/01/25 08:26:22;;;;;;;26.83;10.90;;;;;;;;;;5050762;28;20116;-63
2022/01/25 08:28:48;;;;;;;21.75;11.07;;;;;;;;;;5051781;28;20078;-64
2022/01/25 08:31:14;;;;;;;21.83;10.77;;;;;;;;;;5051934;28;20021;-64
2022/01/25 08:33:40;;;;;;;17.67;10.75;;;;;;;;;;5050410;28;20013;-63
2022/01/25 08:36:06;;;;;;;23.70;11.77;;;;;;;;;;5053179;28;20055;-65
2022/01/25 08:38:32;;;;;;;19.63;11.48;;;;;;;;;;5055967;28;20021;-65
2022/01/25 08:40:58;;;;;;;18.92;10.77;;;;;;;;;;5055766;28;20021;-65
2022/01/25 08:43:25;;;;;;;20.90;11.27;;;;;;;;;;5055709;28;20052;-65
2022/01/25 08:45:51;;;;;;;15.73;10.18;;;;;;;;;;5055592;28;20013;-65
2022/01/25 08:48:17;;;;;;;24.77;11.20;;;;;;;;;;5055443;28;20064;-65
2022/01/25 08:50:43;;;;;;;21.10;11.68;;;;;;;;;;5055698;28;20029;-65
2022/01/25 08:53:11;;;;;;;19.48;10.45;;;;;;;;;;5055488;28;20029;-64
2022/01/25 08:55:37;;;;;;;19.80;10.63;;;;;;;;;;5055614;28;20102;-64
2022/01/25 08:58:04;;;;;;;21.95;11.55;;;;;;;;;;5055540;28;20033;-64
2022/01/25 09:00:30;;;;;;;21.10;11.13;;;;;;;;;;5055417;28;20523;-64
2022/01/25 09:02:56;;;;;;;17.48;11.13;;;;;;;;;;5044208;28;20232;-64
2022/01/25 09:05:22;;;;;;;25.15;11.95;;;;;;;;;;5043274;28;20982;-63
2022/01/25 09:07:49;;;;;;;18.67;9.93;;;;;;;;;;5054178;28;20036;-64
2022/01/25 09:10:15;;;;;;;18.63;11.57;;;;;;;;;;5042285;28;20443;-65
2022/01/25 09:12:41;;;;;;;20.20;11.50;;;;;;;;;;5034796;28;20025;-65
2022/01/25 09:15:07;;;;;;;20.90;11.60;;;;;;;;;;5033813;28;20030;-64
2022/01/25 09:17:33;;;;;;;20.75;10.93;;;;;;;;;;5053107;28;20104;-63
2022/01/25 09:20:01;;;;;;;17.10;11.10;;;;;;;;;;5054270;28;20049;-66
2022/01/25 09:22:27;;;;;;;17.38;11.32;;;;;;;;;;5052900;28;20024;-67
2022/01/25 09:24:53;;;;;;;22.60;11.98;;;;;;;;;;5054592;28;20388;-66
2022/01/25 09:27:20;;;;;;;21.40;11.32;;;;;;;;;;5054356;28;20102;-66
2022/01/25 09:29:46;;;;;;;130.60;14.43;;;;;;;;;;5054461;28;20033;-66
2022/01/25 09:32:12;;;;;;;29.40;10.88;;;;;;;;;;5054833;28;20074;-67
2022/01/25 09:34:38;;;;;;;32.38;12.55;;;;;;;;;;5053704;28;20515;-65
2022/01/25 09:37:04;;;;;;;31.17;11.32;;;;;;;;;;5054556;28;20157;-65
2022/01/25 09:39:30;;;;;;;31.05;11.98;;;;;;;;;;5054461;28;20020;-64
2022/01/25 09:41:57;;;;;;;25.55;11.60;;;;;;;;;;5054612;28;20384;-66
2022/01/25 09:44:23;;;;;;;29.40;12.00;;;;;;;;;;5053343;28;20021;-65
2022/01/25 09:46:53;;;;;;;19.40;12.38;;;;;;;;;;5054547;28;20055;-65
2022/01/25 09:49:20;;;;;;;28.70;12.60;;;;;;;;;;5054054;28;20052;-63
2022/01/25 09:51:49;;;;;;;24.85;11.82;;;;;;;;;;5053427;28;20025;-66
2022/01/25 09:54:15;;;;;;;24.85;11.85;;;;;;;;;;5036244;28;20066;-66
2022/01/25 09:56:41;;;;;;;23.42;12.85;;;;;;;;;;5034633;28;20499;-67
2022/01/25 09:59:07;;;;;;;30.42;12.93;;;;;;;;;;5034113;28;20064;-67
2022/01/25 10:01:36;;;;;;;20.83;12.05;;;;;;;;;;5032307;28;20537;-66
2022/01/25 10:04:05;;;;;;;25.80;12.15;;;;;;;;;;5045432;28;20090;-65
2022/01/25 10:06:33;;;;;;;22.80;12.63;;;;;;;;;;5053981;28;20025;-63
2022/01/25 10:08:59;;;;;;;19.48;12.70;;;;;;;;;;5053716;28;20041;-64
2022/01/25 10:11:25;;;;;;;18.67;12.80;;;;;;;;;;5054064;28;20484;-65
2022/01/25 10:13:56;;;;;;;19.85;11.68;;;;;;;;;;5054063;28;20037;-62
2022/01/25 10:16:32;;;;;;;21.85;12.45;;;;;;;;;;5053368;28;20021;-63
2022/01/25 10:19:03;;;;;;;26.35;13.57;;;;;;;;;;5050982;28;20056;-65
2022/01/25 10:21:29;;;;;;;24.08;13.60;;;;;;;;;;5053834;28;20045;-62
2022/01/25 10:24:15;;;;;;;23.02;13.32;;;;;;;;;;5052611;28;20032;-62
2022/01/25 10:26:43;;;;;;;22.83;12.85;;;;;;;;;;5053765;28;20028;-65
2022/01/25 10:29:10;;;;;;;24.45;13.68;;;;;;;;;;5052092;28;20064;-65
2022/01/25 10:31:41;;;;;;;29.15;15.48;;;;;;;;;;5053647;28;20021;-63
2022/01/25 10:34:08;;;;;;;23.50;13.95;;;;;;;;;;5052391;28;20357;-64
2022/01/25 10:36:35;;;;;;;30.38;14.40;;;;;;;;;;5052821;28;20029;-65
2022/01/25 10:39:01;;;;;;;33.15;14.32;;;;;;;;;;5053244;28;20633;-67
2022/01/25 10:41:28;;;;;;;26.45;13.52;;;;;;;;;;5053792;28;20059;-65
2022/01/25 10:43:57;;;;;;;29.55;13.63;;;;;;;;;;5053310;28;20025;-71
2022/01/25 10:46:25;;;;;;;23.75;13.63;;;;;;;;;;5052037;28;20028;-69
2022/01/25 10:48:57;;;;;;;27.42;13.18;;;;;;;;;;5051602;28;20064;-65
2022/01/25 10:51:31;;;;;;;26.73;13.67;;;;;;;;;;5049456;28;20021;-66
2022/01/25 10:54:10;;;;;;;25.42;13.10;;;;;;;;;;5051545;28;20028;-62
2022/01/25 10:56:41;;;;;;;25.35;14.02;;;;;;;;;;5051782;28;20075;-62
2022/01/25 10:59:08;;;;;;;28.15;12.98;;;;;;;;;;5050491;28;20029;-62
2022/01/25 11:01:36;;;;;;;28.52;13.95;;;;;;;;;;5043438;28;20108;-62
2022/01/25 11:04:14;;;;;;;20.42;13.50;;;;;;;;;;5032642;28;20018;-63
2022/01/25 11:06:40;;;;;;;26.10;13.00;;;;;;;;;;5032628;28;20022;-64
2022/01/25 11:09:08;;;;;;;24.90;14.45;;;;;;;;;;5032316;28;20185;-63
2022/01/25 11:11:38;;;;;;;27.02;14.43;;;;;;;;;;5033011;28;20021;-63
2022/01/25 11:16:49;;;;;;;21.70;13.38;;;;;;;;;;5032575;28;20121;-63
2022/01/25 11:19:15;;;;;;;27.85;14.68;;;;;;;;;;5032639;28;20057;-62
2022/01/25 11:21:43;;;;;;;23.63;12.63;;;;;;;;;;5032483;28;20045;-64
2022/01/25 11:24:12;;;;;;;28.67;12.52;;;;;;;;;;5032533;28;20029;-64
2022/01/25 11:26:38;;;;;;;22.92;12.82;;;;;;;;;;5032299;28;20044;-64
2022/01/25 11:29:04;;;;;;;20.30;12.77;;;;;;;;;;5032430;28;20037;-68
2022/01/25 11:31:30;;;;;;;22.10;11.85;;;;;;;;;;5031861;28;20017;-62
2022/01/25 11:33:58;;;;;;;23.88;11.40;;;;;;;;;;5032039;28;20025;-63
2022/01/25 11:36:24;;;;;;;22.92;12.15;;;;;;;;;;5032298;28;20025;-62
2022/01/25 11:38:52;;;;;;;23.85;12.20;;;;;;;;;;5032211;28;20503;-64
2022/01/25 11:41:19;;;;;;;17.73;11.10;;;;;;;;;;5032419;28;20025;-63
2022/01/25 11:44:04;;;;;;;18.67;10.73;;;;;;;;;;5032348;28;20032;-64
2022/01/25 11:46:30;;;;;;;18.58;10.88;;;;;;;;;;5032306;28;20021;-66
2022/01/25 11:49:00;;;;;;;18.98;9.80;;;;;;;;;;5031922;28;20084;-63
2022/01/25 11:51:26;;;;;;;17.92;10.93;;;;;;;;;;5032252;28;20018;-63
2022/01/25 11:53:52;;;;;;;17.45;9.80;;;;;;;;;;5032315;28;20357;-63
2022/01/25 11:56:18;;;;;;;16.95;10.20;;;;;;;;;;5032221;28;20017;-64
2022/01/25 11:58:54;;;;;;;19.27;10.20;;;;;;;;;;5032244;28;20013;-62
2022/01/25 12:01:22;;;;;;;19.00;9.63;;;;;;;;;;5032339;28;20064;-66
2022/01/25 12:04:08;;;;;;;17.77;9.43;;;;;;;;;;5031601;28;20404;-67
2022/01/25 12:06:39;;;;;;;15.07;9.80;;;;;;;;;;5072271;28;20086;-67
2022/01/25 12:09:20;;;;;;;20.95;10.05;;;;;;;;;;5071469;28;20043;-65
2022/01/25 12:12:02;;;;;;;18.13;10.40;;;;;;;;;;5071195;28;20020;-62
2022/01/25 12:14:30;;;;;;;14.15;9.40;;;;;;;;;;5071615;28;20113;-64
2022/01/25 12:16:58;;;;;;;18.65;10.38;;;;;;;;;;5070062;28;20028;-61
2022/01/25 12:19:33;;;;;;;15.95;9.57;;;;;;;;;;5071169;28;20028;-62
2022/01/25 12:22:15;;;;;;;14.68;9.00;;;;;;;;;;5070034;28;20509;-63
2022/01/25 12:24:50;;;;;;;14.40;9.32;;;;;;;;;;5071431;28;20016;-62
2022/01/25 12:27:29;;;;;;;17.40;9.55;;;;;;;;;;5071621;28;20020;-65
2022/01/25 12:30:00;;;;;;;17.50;9.18;;;;;;;;;;5058450;28;20029;-62
2022/01/25 12:32:29;;;;;;;15.80;8.60;;;;;;;;;;5050404;28;20480;-63
2022/01/25 12:34:58;;;;;;;17.75;8.70;;;;;;;;;;5051648;28;20029;-61
2022/01/25 12:37:43;;;;;;;14.40;8.82;;;;;;;;;;5051434;28;20017;-62
2022/01/25 12:40:24;;;;;;;35.13;13.70;;;;;;;;;;5051943;28;20025;-61
2022/01/25 12:42:51;;;;;;;23.50;11.05;;;;;;;;;;5050209;28;20025;-62
2022/01/25 12:45:18;;;;;;;21.20;10.55;;;;;;;;;;5051219;28;20115;-63
2022/01/25 12:47:54;;;;;;;22.58;10.40;;;;;;;;;;5049853;28;20074;-63
2022/01/25 12:50:20;;;;;;;21.02;9.90;;;;;;;;;;5051444;28;20029;-63
2022/01/25 12:52:47;;;;;;;24.88;9.68;;;;;;;;;;5051335;28;20092;-65
2022/01/25 12:55:14;;;;;;;19.88;9.95;;;;;;;;;;5051527;28;20422;-62
2022/01/25 12:57:47;;;;;;;18.98;9.48;;;;;;;;;;5051276;28;20364;-61
2022/01/25 13:00:13;;;;;;;19.65;10.27;;;;;;;;;;5050044;28;20018;-61
2022/01/25 13:02:39;;;;;;;20.50;10.68;;;;;;;;;;5051353;28;20059;-62
2022/01/25 13:05:25;;;;;;;18.50;8.82;;;;;;;;;;5051363;28;20032;-63
2022/01/25 13:07:51;;;;;;;20.73;10.00;;;;;;;;;;5051333;28;20036;-61
2022/01/25 13:10:27;;;;;;;17.52;9.63;;;;;;;;;;5051468;28;20415;-63
2022/01/25 13:12:59;;;;;;;17.23;9.18;;;;;;;;;;5051234;28;20056;-63
2022/01/25 13:15:39;;;;;;;16.80;8.68;;;;;;;;;;5049777;28;20028;-62
2022/01/25 13:18:09;;;;;;;15.73;8.48;;;;;;;;;;5051304;28;20091;-63
2022/01/25 13:20:35;;;;;;;15.23;8.50;;;;;;;;;;5051285;28;20121;-61
2022/01/25 13:23:01;;;;;;;14.88;8.27;;;;;;;;;;5052223;28;20103;-63
2022/01/25 13:25:32;;;;;;;15.70;9.00;;;;;;;;;;5054946;28;20021;-62
2022/01/25 13:27:59;;;;;;;13.43;7.80;;;;;;;;;;5054892;28;20029;-63
2022/01/25 13:30:41;;;;;;;14.05;7.32;;;;;;;;;;5053715;28;20447;-63
2022/01/25 13:33:14;;;;;;;14.48;8.43;;;;;;;;;;5055005;28;20021;-62
2022/01/25 13:35:47;;;;;;;15.65;8.40;;;;;;;;;;5054914;28;20021;-63
2022/01/25 13:38:16;;;;;;;15.07;7.90;;;;;;;;;;5054903;28;20103;-61
2022/01/25 13:41:08;;;;;;;18.30;8.25;;;;;;;;;;5054674;28;20044;-62
2022/01/25 13:46:07;;;;;;;11.50;6.80;;;;;;;;;;5054442;28;20035;-67
2022/01/25 13:48:34;;;;;;;13.55;6.47;;;;;;;;;;5054387;28;20292;-62
2022/01/25 13:51:01;;;;;;;11.65;5.70;;;;;;;;;;5054346;28;20051;-63
2022/01/25 13:53:27;;;;;;;14.13;5.97;;;;;;;;;;5054326;28;20055;-62
2022/01/25 13:55:55;;;;;;;25.08;5.65;;;;;;;;;;5053871;28;20472;-64
2022/01/25 13:58:31;;;;;;;11.75;6.28;;;;;;;;;;5045939;28;20049;-61
2022/01/25 14:00:59;;;;;;;10.27;5.63;;;;;;;;;;5032301;28;20013;-62
2022/01/25 14:03:31;;;;;;;10.68;5.65;;;;;;;;;;5031673;28;20033;-61
2022/01/25 14:05:58;;;;;;;10.93;5.57;;;;;;;;;;5033591;28;20030;-66
2022/01/25 14:08:42;;;;;;;10.88;5.70;;;;;;;;;;5033331;28;20132;-61
2022/01/25 14:24:59;;;;;;;10.98;5.72;;;;;;;;;;5033506;28;20075;-61
2022/01/25 14:27:29;;;;;;;10.60;5.93;;;;;;;;;;5033063;28;20388;-63
2022/01/25 14:29:55;;;;;;;9.68;4.85;;;;;;;;;;5031855;28;20021;-65
2022/01/25 14:32:31;;;;;;;8.50;5.22;;;;;;;;;;5033212;28;20097;-62
2022/01/25 14:35:05;;;;;;;9.50;5.82;;;;;;;;;;5031174;28;20377;-63
2022/01/25 14:37:32;;;;;;;8.55;5.50;;;;;;;;;;5032843;28;20037;-64
2022/01/25 14:40:08;;;;;;;8.48;5.22;;;;;;;;;;5032900;28;20021;-62
2022/01/25 14:42:37;;;;;;;9.05;5.32;;;;;;;;;;5032912;28;20018;-63
2022/01/25 14:45:07;;;;;;;8.48;4.60;;;;;;;;;;5031696;28;20385;-62
2022/01/25 14:47:38;;;;;;;10.32;5.55;;;;;;;;;;5031526;28;20112;-65
2022/01/25 14:50:07;;;;;;;8.85;5.10;;;;;;;;;;5032804;28;20029;-63
2022/01/25 14:52:34;;;;;;;9.80;4.95;;;;;;;;;;5032652;28;20046;-62
2022/01/25 14:55:00;;;;;;;8.18;5.28;;;;;;;;;;5032282;28;20025;-64
2022/01/25 14:57:37;;;;;;;9.65;5.55;;;;;;;;;;5032588;28;20057;-63
2022/01/25 15:00:05;;;;;;;9.07;5.50;;;;;;;;;;5048068;28;20025;-65
2022/01/25 15:02:32;;;;;;;10.45;5.78;;;;;;;;;;5032784;28;20022;-64
2022/01/25 15:04:58;;;;;;;10.25;5.70;;;;;;;;;;5032336;28;20535;-62
2022/01/25 15:07:33;;;;;;;9.88;5.45;;;;;;;;;;5032809;28;20045;-63
2022/01/25 15:10:02;;;;;;;9.13;5.65;;;;;;;;;;5032992;28;20032;-63
2022/01/25 15:12:34;;;;;;;11.80;6.13;;;;;;;;;;5033124;28;20056;-62
2022/01/25 15:17:27;;;;;;;12.02;7.03;;;;;;;;;;5032883;28;20033;-62
2022/01/25 15:19:53;;;;;;;10.18;6.40;;;;;;;;;;5032808;28;20034;-62
2022/01/25 15:22:20;;;;;;;10.02;5.85;;;;;;;;;;5032940;28;20489;-62
2022/01/25 15:24:48;;;;;;;9.15;5.78;;;;;;;;;;5032772;28;20487;-62
2022/01/25 15:27:14;;;;;;;8.85;5.82;;;;;;;;;;5032325;28;20547;-62
2022/01/25 15:29:40;;;;;;;11.90;6.93;;;;;;;;;;5031843;28;20059;-62
2022/01/25 15:32:08;;;;;;;14.13;6.63;;;;;;;;;;5032373;28;20025;-62
2022/01/25 15:34:38;;;;;;;10.18;6.93;;;;;;;;;;5032433;28;20028;-62
2022/01/25 15:37:04;;;;;;;11.38;6.38;;;;;;;;;;5032149;28;20052;-65
2022/01/25 15:39:30;;;;;;;10.15;7.15;;;;;;;;;;5030446;28;20075;-66
2022/01/25 15:41:58;;;;;;;11.98;6.70;;;;;;;;;;5031880;28;20018;-63
2022/01/25 15:44:33;;;;;;;11.45;6.90;;;;;;;;;;5032028;28;20028;-62
2022/01/25 15:46:59;;;;;;;11.63;7.70;;;;;;;;;;5029691;28;20048;-66
2022/01/25 15:49:27;;;;;;;11.35;7.30;;;;;;;;;;5030803;28;20473;-65
2022/01/25 15:51:53;;;;;;;11.98;6.95;;;;;;;;;;5032463;28;20021;-65
2022/01/25 15:54:19;;;;;;;11.75;7.60;;;;;;;;;;5031601;28;20026;-66
2022/01/25 15:56:45;;;;;;;11.15;7.15;;;;;;;;;;5042072;28;20029;-66
2022/01/25 15:59:12;;;;;;;12.07;7.05;;;;;;;;;;5059536;28;20361;-63
2022/01/25 16:01:38;;;;;;;12.05;7.80;;;;;;;;;;5060656;28;20021;-62
2022/01/25 16:04:05;;;;;;;11.27;7.53;;;;;;;;;;5051153;28;20017;-64
2022/01/25 16:06:31;;;;;;;10.60;6.95;;;;;;;;;;5051219;28;20053;-62
2022/01/25 16:08:57;;;;;;;11.50;7.22;;;;;;;;;;5051055;28;20033;-64
2022/01/25 16:11:25;;;;;;;10.77;7.32;;;;;;;;;;5050215;28;20488;-62
2022/01/25 16:13:51;;;;;;;10.95;7.13;;;;;;;;;;5040066;28;20028;-62
2022/01/25 16:16:18;;;;;;;15.38;7.82;;;;;;;;;;5031339;28;20025;-63
2022/01/25 16:18:45;;;;;;;22.70;7.32;;;;;;;;;;5031038;28;20013;-66
2022/01/25 16:21:12;;;;;;;14.40;7.05;;;;;;;;;;5031132;28;20056;-63
2022/01/25 16:23:39;;;;;;;112.82;12.10;;;;;;;;;;5049625;28;20017;-63
2022/01/25 16:26:05;;;;;;;56.58;10.23;;;;;;;;;;5050904;28;20159;-63
2022/01/25 16:28:32;;;;;;;20.05;8.75;;;;;;;;;;5047972;28;20033;-65
2022/01/25 16:31:10;;;;;;;25.42;9.38;;;;;;;;;;5049655;28;20112;-63
2022/01/25 16:33:37;;;;;;;21.95;9.23;;;;;;;;;;5049678;28;20028;-63
2022/01/25 16:36:03;;;;;;;20.38;8.45;;;;;;;;;;5050800;28;20028;-63